Time;durP1;ratioP1;P1;durP2;ratioP2;P2;SDS_P1;SDS_P2;PMS_P1;PMS_P2;Temp;Humidity;BMP_temperature;BMP_pressure;BME280_temperature;BME280_humidity;BME280_pressure;Samples;Min_cycle;Max_cycle;Signal;HPM_P1;HPM_P2
2022/08/26 00:01:20;;;;;;;11.43;10.23;;;22.50;99.90;;;;;;4977828;28;20049;-86
2022/08/26 00:03:46;;;;;;;15.60;11.73;;;22.40;99.90;;;;;;4982417;28;20054;-86
2022/08/26 00:06:12;;;;;;;14.85;12.93;;;22.40;99.90;;;;;;4979632;28;20046;-86
2022/08/26 00:08:38;;;;;;;17.88;12.30;;;22.40;99.90;;;;;;4981305;28;20050;-87
2022/08/26 00:11:05;;;;;;;15.20;12.93;;;22.40;99.90;;;;;;4980413;28;20407;-88
2022/08/26 00:13:31;;;;;;;15.43;13.80;;;22.40;99.90;;;;;;4982101;28;20130;-86
2022/08/26 00:15:57;;;;;;;20.25;15.60;;;22.30;99.90;;;;;;4961289;28;20415;-85
2022/08/26 00:18:23;;;;;;;17.95;15.93;;;22.50;99.90;;;;;;4978939;28;20066;-87
2022/08/26 00:20:49;;;;;;;15.88;14.27;;;22.30;99.90;;;;;;4978376;28;20050;-87
2022/08/26 00:23:16;;;;;;;17.02;14.68;;;22.20;99.90;;;;;;4975809;28;20046;-88
2022/08/26 00:25:42;;;;;;;16.38;14.50;;;22.20;99.90;;;;;;4975421;28;20062;-86
2022/08/26 00:28:08;;;;;;;23.40;15.68;;;22.10;99.90;;;;;;4976047;28;20046;-88
2022/08/26 00:30:34;;;;;;;17.88;15.80;;;22.10;99.90;;;;;;4975789;28;20073;-86
2022/08/26 00:33:00;;;;;;;17.58;15.77;;;22.10;99.90;;;;;;4974568;28;20133;-87
2022/08/26 00:35:27;;;;;;;19.85;17.10;;;22.10;99.90;;;;;;4975442;28;20047;-86
2022/08/26 00:37:54;;;;;;;20.88;17.48;;;22.00;99.90;;;;;;4975443;28;20101;-86
2022/08/26 00:40:29;;;;;;;22.58;19.65;;;22.00;99.90;;;;;;4975420;28;20047;-87
2022/08/26 00:42:55;;;;;;;20.55;18.40;;;21.90;99.90;;;;;;4974267;28;20050;-86
2022/08/26 00:45:21;;;;;;;23.45;19.40;;;21.90;99.90;;;;;;4975069;28;20051;-86
2022/08/26 00:47:51;;;;;;;23.27;19.80;;;21.90;99.90;;;;;;4973662;28;20050;-86
2022/08/26 00:50:23;;;;;;;24.35;19.73;;;21.90;99.90;;;;;;4958497;28;20061;-87
2022/08/26 00:52:51;;;;;;;22.98;19.45;;;21.80;99.90;;;;;;4974318;28;20112;-89
2022/08/26 00:55:39;;;;;;;25.02;22.27;;;21.70;99.90;;;;;;4975275;28;20047;-87
2022/08/26 00:58:06;;;;;;;25.77;23.08;;;21.60;99.90;;;;;;4973784;28;20503;-86
2022/08/26 01:00:32;;;;;;;27.30;22.35;;;21.60;99.90;;;;;;4958338;28;20054;-86
2022/08/26 01:03:00;;;;;;;28.13;24.42;;;21.50;99.90;;;;;;4974332;28;20049;-86
2022/08/26 01:05:27;;;;;;;28.58;23.63;;;21.40;99.90;;;;;;4975010;28;20054;-87
2022/08/26 01:07:53;;;;;;;28.40;24.00;;;21.40;99.90;;;;;;4974067;28;20059;-87
2022/08/26 01:10:23;;;;;;;26.08;23.25;;;21.40;99.90;;;;;;4974952;28;20096;-87
2022/08/26 01:13:04;;;;;;;26.92;22.85;;;21.40;99.90;;;;;;4974800;28;20061;-89
2022/08/26 01:15:35;;;;;;;29.70;24.52;;;21.30;99.90;;;;;;4974950;28;20063;-86
2022/08/26 01:18:04;;;;;;;25.80;22.88;;;21.30;99.90;;;;;;4973884;28;20047;-86
2022/08/26 01:20:45;;;;;;;27.88;23.42;;;21.30;99.90;;;;;;4973824;28;20160;-88
2022/08/26 01:23:12;;;;;;;26.92;23.98;;;21.30;99.90;;;;;;4974192;28;20098;-88
2022/08/26 01:25:42;;;;;;;28.77;22.90;;;21.20;99.90;;;;;;4975937;28;20051;-84
2022/08/26 01:28:27;;;;;;;26.80;23.98;;;21.20;99.90;;;;;;4975436;28;20051;-86
2022/08/26 01:30:54;;;;;;;27.83;24.00;;;21.20;99.90;;;;;;4975122;28;20059;-86
2022/08/26 01:33:30;;;;;;;29.00;22.92;;;21.10;99.90;;;;;;4974460;28;20047;-85
2022/08/26 01:35:56;;;;;;;29.05;23.13;;;21.10;99.90;;;;;;4973630;28;20545;-86
2022/08/26 01:38:22;;;;;;;31.38;24.35;;;21.10;99.90;;;;;;4958023;28;20054;-86
2022/08/26 01:40:48;;;;;;;27.23;22.77;;;21.10;99.90;;;;;;4973450;28;20058;-86
2022/08/26 01:43:21;;;;;;;27.48;23.15;;;21.00;99.90;;;;;;4973576;28;20051;-86
2022/08/26 01:45:48;;;;;;;30.60;22.83;;;21.00;99.90;;;;;;4974488;28;20058;-86
2022/08/26 01:48:19;;;;;;;27.88;21.38;;;21.00;99.90;;;;;;4975006;28;20125;-85
2022/08/26 01:50:46;;;;;;;30.88;21.90;;;21.00;99.90;;;;;;4978619;28;20039;-86
2022/08/26 01:53:16;;;;;;;28.63;21.73;;;21.00;99.90;;;;;;4961503;28;20459;-88
2022/08/26 01:55:46;;;;;;;29.88;22.45;;;21.00;99.90;;;;;;4978594;28;20043;-88
2022/08/26 01:58:21;;;;;;;26.67;20.63;;;20.90;99.90;;;;;;4978273;28;20046;-84
2022/08/26 02:00:47;;;;;;;27.65;21.48;;;20.90;99.90;;;;;;4977771;28;20051;-86
2022/08/26 02:03:15;;;;;;;29.42;20.25;;;20.90;99.90;;;;;;4977327;28;20050;-86
2022/08/26 02:05:44;;;;;;;24.70;20.20;;;20.90;99.90;;;;;;4978422;28;20047;-88
2022/08/26 02:08:12;;;;;;;29.15;21.20;;;21.00;99.90;;;;;;4978482;28;20499;-88
2022/08/26 02:10:37;;;;;;;31.15;21.92;;;21.00;99.90;;;;;;4978160;28;20047;-86
2022/08/26 02:13:05;;;;;;;30.42;20.80;;;21.00;99.90;;;;;;4977091;28;20053;-87
2022/08/26 02:15:33;;;;;;;26.80;20.48;;;21.00;99.90;;;;;;4976578;28;20105;-88
2022/08/26 02:17:59;;;;;;;32.60;20.60;;;21.00;99.90;;;;;;4977710;28;20086;-90
2022/08/26 02:20:26;;;;;;;32.88;21.10;;;21.00;99.90;;;;;;4976918;28;20043;-86
2022/08/26 02:22:52;;;;;;;28.95;20.08;;;21.00;99.90;;;;;;4976966;28;20051;-88
2022/08/26 02:25:46;;;;;;;30.52;20.15;;;21.00;99.90;;;;;;4976814;28;20498;-88
2022/08/26 02:28:13;;;;;;;31.17;20.65;;;21.00;99.90;;;;;;4978128;28;20046;-87
2022/08/26 02:30:40;;;;;;;31.88;19.55;;;21.00;99.90;;;;;;4977957;28;20047;-87
2022/08/26 02:33:06;;;;;;;29.30;21.23;;;21.00;99.90;;;;;;4978840;28;20047;-88
2022/08/26 02:35:33;;;;;;;26.73;20.08;;;21.00;99.90;;;;;;4976745;28;20043;-88
2022/08/26 02:37:59;;;;;;;30.33;19.50;;;21.10;99.90;;;;;;4960553;28;20051;-88
2022/08/26 02:40:29;;;;;;;35.28;20.45;;;21.00;99.90;;;;;;4976503;28;20498;-88
2022/08/26 02:42:55;;;;;;;32.63;19.25;;;21.00;99.90;;;;;;4977030;28;20050;-89
2022/08/26 02:45:21;;;;;;;30.05;19.15;;;21.10;99.90;;;;;;4960680;28;20118;-87
2022/08/26 02:47:48;;;;;;;30.98;20.02;;;21.00;99.90;;;;;;4960007;28;20051;-86
2022/08/26 02:50:14;;;;;;;27.25;19.95;;;21.00;99.90;;;;;;4976380;28;20053;-85
2022/08/26 02:52:40;;;;;;;31.50;20.25;;;21.00;99.90;;;;;;4976378;28;20051;-86
2022/08/26 02:55:06;;;;;;;33.17;21.05;;;21.00;99.90;;;;;;4977597;28;20125;-86
2022/08/26 02:57:32;;;;;;;29.42;19.88;;;21.00;99.90;;;;;;4977271;28;20042;-87
2022/08/26 02:59:59;;;;;;;32.83;20.63;;;21.00;99.90;;;;;;4976244;28;20046;-85
2022/08/26 03:02:27;;;;;;;31.38;21.08;;;21.00;99.90;;;;;;4975941;28;20125;-85
2022/08/26 03:04:52;;;;;;;30.58;20.60;;;21.00;99.90;;;;;;4976976;28;20105;-84
2022/08/26 03:07:19;;;;;;;32.53;20.38;;;21.00;99.90;;;;;;4976937;28;20376;-89
2022/08/26 03:09:45;;;;;;;33.00;20.88;;;21.00;99.90;;;;;;4976407;28;20499;-88
2022/08/26 03:12:11;;;;;;;31.30;20.60;;;20.90;99.90;;;;;;4977123;28;20192;-89
2022/08/26 03:14:37;;;;;;;30.88;19.50;;;21.00;99.90;;;;;;4977120;28;20050;-86
2022/08/26 03:17:04;;;;;;;31.23;19.75;;;20.90;99.90;;;;;;4975006;28;20422;-83
2022/08/26 03:19:30;;;;;;;31.70;19.77;;;21.00;99.90;;;;;;4959682;28;20054;-84
2022/08/26 03:21:57;;;;;;;32.40;20.58;;;21.00;99.90;;;;;;4976016;28;20058;-85
2022/08/26 03:24:23;;;;;;;28.30;19.88;;;21.00;99.90;;;;;;4976894;28;20093;-85
2022/08/26 03:26:49;;;;;;;31.90;20.38;;;21.00;99.90;;;;;;4975898;28;20441;-84
2022/08/26 03:31:59;;;;;;;31.60;20.27;;;21.00;99.90;;;;;;4962148;28;20061;-85
2022/08/26 03:34:25;;;;;;;32.20;20.73;;;21.00;99.90;;;;;;4976616;28;20473;-84
2022/08/26 03:36:51;;;;;;;31.67;20.52;;;21.00;99.90;;;;;;4976577;28;20050;-84
2022/08/26 03:39:17;;;;;;;32.70;20.45;;;21.00;99.90;;;;;;4976517;28;20059;-84
2022/08/26 03:41:45;;;;;;;36.72;21.80;;;21.00;99.90;;;;;;4975563;28;20051;-84
2022/08/26 03:44:11;;;;;;;34.97;21.80;;;21.10;99.90;;;;;;4976547;28;20047;-86
2022/08/26 03:46:38;;;;;;;38.83;21.98;;;21.00;99.90;;;;;;4974831;28;20054;-83
2022/08/26 03:49:07;;;;;;;34.50;22.30;;;21.00;99.90;;;;;;4975389;28;20090;-86
2022/08/26 03:51:34;;;;;;;39.35;22.33;;;21.00;99.90;;;;;;4976432;28;20491;-86
2022/08/26 03:54:01;;;;;;;33.67;22.27;;;21.00;99.90;;;;;;4976365;28;20051;-86
2022/08/26 03:56:28;;;;;;;31.70;21.95;;;21.00;99.90;;;;;;4975051;28;20392;-86
2022/08/26 03:58:54;;;;;;;30.67;20.83;;;21.00;99.90;;;;;;4975096;28;20077;-86
2022/08/26 04:01:19;;;;;;;33.05;21.05;;;21.00;99.90;;;;;;4975131;28;20047;-87
2022/08/26 04:03:57;;;;;;;36.20;22.92;;;21.00;99.90;;;;;;4959231;28;20100;-84
2022/08/26 04:06:26;;;;;;;32.75;21.80;;;21.00;99.90;;;;;;4975393;28;20050;-83
2022/08/26 04:08:57;;;;;;;37.78;23.30;;;21.00;99.90;;;;;;4974991;28;20182;-86
2022/08/26 04:11:29;;;;;;;37.55;23.92;;;21.00;99.90;;;;;;4975322;28;20108;-82
2022/08/26 04:13:54;;;;;;;32.70;23.38;;;21.00;99.90;;;;;;4975669;28;20043;-85
2022/08/26 04:16:20;;;;;;;36.92;22.55;;;21.10;99.90;;;;;;4958042;28;20058;-85
2022/08/26 04:18:46;;;;;;;32.63;22.00;;;21.10;99.90;;;;;;4975287;28;20049;-84
2022/08/26 04:21:11;;;;;;;37.88;23.23;;;21.10;99.90;;;;;;4974883;28;20046;-83
2022/08/26 04:23:38;;;;;;;33.08;21.52;;;21.10;99.90;;;;;;4958676;28;20148;-84
2022/08/26 04:26:04;;;;;;;32.80;20.83;;;21.10;99.90;;;;;;4974655;28;20047;-85
2022/08/26 04:28:30;;;;;;;30.52;19.77;;;21.10;99.90;;;;;;4958363;28;20042;-83
2022/08/26 04:30:56;;;;;;;32.17;19.50;;;21.10;99.90;;;;;;4975666;28;20038;-85
2022/08/26 04:33:23;;;;;;;26.58;19.38;;;21.10;99.90;;;;;;4975640;28;20388;-84
2022/08/26 04:35:48;;;;;;;27.23;18.98;;;21.10;99.90;;;;;;4958565;28;20050;-84
2022/08/26 04:38:15;;;;;;;28.02;18.17;;;21.20;99.90;;;;;;4958446;28;20051;-83
2022/08/26 04:40:45;;;;;;;32.20;18.95;;;21.20;99.90;;;;;;4975260;28;20046;-87
2022/08/26 04:43:11;;;;;;;28.80;18.38;;;21.20;99.90;;;;;;4975087;28;20133;-84
2022/08/26 04:45:40;;;;;;;26.50;17.63;;;21.20;99.90;;;;;;4974567;28;20054;-84
2022/08/26 04:48:06;;;;;;;25.73;17.15;;;21.20;99.90;;;;;;4974010;28;20046;-82
2022/08/26 04:50:31;;;;;;;26.42;17.13;;;21.20;99.90;;;;;;4974435;28;20050;-84
2022/08/26 04:52:58;;;;;;;28.17;17.38;;;21.20;99.90;;;;;;4974305;28;20053;-83
2022/08/26 04:55:24;;;;;;;28.20;17.50;;;21.20;99.90;;;;;;4957945;28;20086;-85
2022/08/26 04:57:53;;;;;;;29.85;17.65;;;21.10;99.90;;;;;;4974894;28;20410;-82
2022/08/26 05:00:19;;;;;;;33.85;18.80;;;21.20;99.90;;;;;;4975111;28;20117;-86
2022/08/26 05:02:45;;;;;;;28.75;18.20;;;21.10;99.90;;;;;;4974006;28;20394;-85
2022/08/26 05:05:12;;;;;;;33.45;18.10;;;21.20;99.90;;;;;;4974945;28;20043;-85
2022/08/26 05:07:38;;;;;;;25.13;17.27;;;21.20;99.90;;;;;;4974178;28;20120;-84
2022/08/26 05:10:04;;;;;;;27.33;18.15;;;21.20;99.90;;;;;;4974852;28;20137;-84
2022/08/26 05:12:30;;;;;;;31.52;17.15;;;21.20;99.90;;;;;;4973606;28;20058;-85
2022/08/26 05:14:56;;;;;;;28.48;17.27;;;21.20;99.90;;;;;;4957537;28;20098;-82
2022/08/26 05:17:22;;;;;;;26.83;17.30;;;21.30;99.90;;;;;;4973065;28;20419;-85
2022/08/26 05:19:49;;;;;;;24.00;15.60;;;21.20;99.90;;;;;;4973781;28;20078;-85
2022/08/26 05:22:16;;;;;;;24.75;15.43;;;21.20;99.90;;;;;;4972899;28;20050;-83
2022/08/26 05:24:42;;;;;;;27.48;16.73;;;21.20;99.90;;;;;;4974563;28;20047;-87
2022/08/26 05:27:08;;;;;;;26.42;15.60;;;21.20;99.90;;;;;;4957715;28;20134;-85
2022/08/26 05:29:37;;;;;;;29.23;16.85;;;21.20;99.90;;;;;;4973534;28;20089;-85
2022/08/26 05:32:03;;;;;;;25.80;16.98;;;21.20;99.90;;;;;;4957574;28;20090;-86
2022/08/26 05:34:29;;;;;;;25.08;17.17;;;21.20;99.90;;;;;;4957675;28;20051;-87
2022/08/26 05:36:54;;;;;;;25.05;16.00;;;21.20;99.90;;;;;;4973640;28;20039;-87
2022/08/26 05:39:22;;;;;;;25.88;15.85;;;21.20;99.90;;;;;;4957327;28;20050;-84
2022/08/26 05:41:47;;;;;;;28.92;15.50;;;21.20;99.90;;;;;;4957302;28;20050;-83
2022/08/26 05:44:17;;;;;;;24.70;15.30;;;21.20;99.90;;;;;;4957475;28;20059;-83
2022/08/26 05:46:44;;;;;;;29.83;16.83;;;21.20;99.90;;;;;;4974127;28;20042;-82
2022/08/26 05:49:12;;;;;;;26.35;16.42;;;21.20;99.90;;;;;;4974394;28;20054;-86
2022/08/26 05:51:38;;;;;;;29.08;15.75;;;21.20;99.90;;;;;;4974347;28;20097;-83
2022/08/26 05:54:07;;;;;;;24.75;16.70;;;21.20;99.90;;;;;;4974095;28;20057;-84
2022/08/26 05:56:33;;;;;;;25.00;15.07;;;21.20;99.90;;;;;;4957670;28;20047;-83
2022/08/26 05:59:01;;;;;;;24.33;15.40;;;21.30;99.90;;;;;;4975714;28;20054;-81
2022/08/26 06:01:28;;;;;;;26.45;15.40;;;21.30;99.90;;;;;;4957926;28;20450;-80
2022/08/26 06:03:57;;;;;;;27.90;15.80;;;21.30;99.90;;;;;;4973045;28;20050;-88
2022/08/26 06:06:29;;;;;;;24.55;15.82;;;21.30;99.90;;;;;;4974205;28;20061;-82
2022/08/26 06:08:57;;;;;;;25.17;15.60;;;21.30;99.90;;;;;;4974500;28;20046;-83
2022/08/26 06:11:26;;;;;;;25.85;16.45;;;21.40;99.90;;;;;;4973930;28;20106;-83
2022/08/26 06:13:53;;;;;;;24.20;15.98;;;21.30;99.90;;;;;;4958553;28;20105;-84
2022/08/26 06:16:22;;;;;;;25.52;16.05;;;21.30;99.90;;;;;;4972956;28;20054;-86
2022/08/26 06:18:50;;;;;;;28.67;16.98;;;21.30;99.90;;;;;;4973843;28;20051;-89
2022/08/26 06:21:25;;;;;;;26.20;15.00;;;21.30;99.90;;;;;;4974164;28;20134;-89
2022/08/26 06:26:39;;;;;;;20.10;14.13;;;21.30;99.90;;;;;;4974143;28;20138;-87
2022/08/26 06:29:05;;;;;;;22.70;14.57;;;21.30;99.90;;;;;;4974246;28;20402;-86
2022/08/26 06:31:33;;;;;;;20.15;13.23;;;21.30;99.90;;;;;;4973802;28;20090;-88
2022/08/26 06:33:58;;;;;;;25.17;14.45;;;21.30;99.90;;;;;;4975122;28;20487;-88
2022/08/26 06:36:26;;;;;;;22.58;14.05;;;21.30;99.90;;;;;;4977768;28;20053;-87
2022/08/26 06:38:55;;;;;;;22.75;13.30;;;21.30;99.90;;;;;;4976729;28;20086;-87
2022/08/26 06:41:22;;;;;;;24.45;13.80;;;21.30;99.90;;;;;;4977719;28;20133;-87
2022/08/26 06:43:48;;;;;;;21.00;13.80;;;21.30;99.90;;;;;;4976681;28;20446;-87
2022/08/26 06:46:16;;;;;;;20.77;13.85;;;21.30;99.90;;;;;;4976567;28;20043;-86
2022/08/26 06:48:43;;;;;;;24.05;14.55;;;21.40;99.90;;;;;;4976177;28;20042;-86
2022/08/26 06:51:14;;;;;;;21.73;13.30;;;21.40;99.90;;;;;;4960488;28;20487;-89
2022/08/26 06:53:44;;;;;;;23.02;14.15;;;21.40;99.90;;;;;;4976401;28;20050;-84
2022/08/26 06:56:10;;;;;;;20.17;13.73;;;21.50;99.90;;;;;;4976188;28;20078;-85
2022/08/26 06:58:38;;;;;;;20.60;13.52;;;21.50;99.90;;;;;;4976058;28;20465;-85
2022/08/26 07:01:17;;;;;;;22.13;12.40;;;21.50;99.90;;;;;;4976161;28;20050;-87
2022/08/26 07:03:44;;;;;;;19.00;12.70;;;21.50;99.90;;;;;;4959985;28;20058;-86
2022/08/26 07:06:10;;;;;;;20.10;12.70;;;21.50;99.90;;;;;;4977198;28;20043;-86
2022/08/26 07:08:35;;;;;;;17.80;11.77;;;21.50;99.90;;;;;;4976069;28;20403;-77
2022/08/26 07:11:09;;;;;;;19.45;12.52;;;21.60;99.90;;;;;;4977027;28;20447;-78
2022/08/26 07:13:36;;;;;;;19.27;12.45;;;21.70;99.90;;;;;;4976072;28;20051;-77
2022/08/26 07:16:11;;;;;;;23.50;12.23;;;21.70;99.90;;;;;;4975616;28;20142;-76
2022/08/26 07:18:39;;;;;;;18.65;11.63;;;21.80;99.90;;;;;;4976533;28;20122;-80
2022/08/26 07:21:08;;;;;;;18.17;11.80;;;21.80;99.90;;;;;;4976805;28;20398;-76
2022/08/26 07:23:34;;;;;;;20.02;11.45;;;21.80;99.90;;;;;;4976738;28;20121;-77
2022/08/26 07:26:09;;;;;;;19.08;11.55;;;21.90;99.90;;;;;;4976932;28;20070;-79
2022/08/26 07:28:34;;;;;;;17.55;10.77;;;21.90;99.90;;;;;;4977199;28;20434;-78
2022/08/26 07:31:05;;;;;;;18.10;12.25;;;21.80;99.90;;;;;;4976875;28;20130;-78
2022/08/26 07:33:31;;;;;;;20.48;11.80;;;21.80;99.90;;;;;;4976040;28;20054;-79
2022/08/26 07:35:56;;;;;;;21.42;11.20;;;21.70;99.90;;;;;;4975495;28;20517;-79
2022/08/26 07:38:22;;;;;;;18.88;10.57;;;21.70;99.90;;;;;;4975447;28;20066;-79
2022/08/26 07:40:48;;;;;;;20.33;10.23;;;21.70;99.90;;;;;;4975766;28;20081;-77
2022/08/26 07:43:14;;;;;;;16.85;11.30;;;21.70;99.90;;;;;;4975371;28;20054;-78
2022/08/26 07:45:41;;;;;;;21.75;11.18;;;21.70;99.90;;;;;;4974584;28;20042;-75
2022/08/26 07:48:07;;;;;;;17.02;12.30;;;21.70;99.90;;;;;;4975951;28;20487;-78
2022/08/26 07:50:33;;;;;;;23.63;11.65;;;21.70;99.90;;;;;;4976383;28;20090;-77
2022/08/26 07:53:00;;;;;;;19.58;11.30;;;21.60;99.90;;;;;;4975225;28;20062;-77
2022/08/26 07:55:27;;;;;;;16.60;11.02;;;21.60;99.90;;;;;;4959269;28;20085;-77
2022/08/26 07:57:52;;;;;;;18.67;11.05;;;21.60;99.90;;;;;;4976306;28;20057;-78
2022/08/26 08:00:19;;;;;;;20.30;10.43;;;21.60;99.90;;;;;;4976224;28;20050;-81
2022/08/26 08:02:45;;;;;;;17.55;12.45;;;21.60;99.90;;;;;;4976231;28;20047;-79
2022/08/26 08:05:21;;;;;;;20.80;11.15;;;21.60;99.90;;;;;;4972205;28;20147;-81
2022/08/26 08:07:47;;;;;;;18.38;11.00;;;21.70;99.90;;;;;;4967976;28;20119;-82
2022/08/26 08:10:17;;;;;;;18.58;11.20;;;21.70;99.90;;;;;;4965095;28;20125;-81
2022/08/26 08:12:43;;;;;;;21.33;9.65;;;21.70;99.90;;;;;;4965334;28;20093;-82
2022/08/26 08:15:12;;;;;;;18.13;10.00;;;21.70;99.90;;;;;;4964964;28;20048;-81
2022/08/26 08:17:39;;;;;;;19.55;9.95;;;21.70;99.90;;;;;;4963023;28;20407;-82
2022/08/26 08:20:07;;;;;;;22.42;10.02;;;21.70;99.90;;;;;;4964616;28;20054;-82
2022/08/26 08:22:32;;;;;;;17.17;9.95;;;21.70;99.90;;;;;;4966651;28;20093;-78
2022/08/26 08:24:58;;;;;;;15.45;8.98;;;21.70;99.90;;;;;;4963817;28;20071;-81
2022/08/26 08:27:24;;;;;;;16.85;9.30;;;21.70;99.90;;;;;;4965941;28;20078;-81
2022/08/26 08:29:55;;;;;;;15.60;8.95;;;21.70;99.90;;;;;;4966149;28;20050;-80
2022/08/26 08:32:22;;;;;;;13.80;8.95;;;21.80;99.90;;;;;;4964684;28;20053;-81
2022/08/26 08:34:48;;;;;;;15.68;8.57;;;21.80;99.90;;;;;;4964279;28;20053;-81
2022/08/26 08:37:13;;;;;;;14.07;8.52;;;21.80;99.90;;;;;;4966465;28;20071;-79
2022/08/26 08:39:39;;;;;;;17.48;8.95;;;21.80;99.90;;;;;;4964959;28;20476;-77
2022/08/26 08:42:32;;;;;;;15.32;7.78;;;21.90;99.90;;;;;;4980390;28;20050;-78
2022/08/26 08:45:09;;;;;;;18.50;8.48;;;21.90;99.90;;;;;;4964132;28;20055;-79
2022/08/26 08:47:41;;;;;;;14.68;7.45;;;21.90;99.90;;;;;;4964122;28;20035;-80
2022/08/26 08:50:21;;;;;;;13.23;8.13;;;21.90;99.90;;;;;;4965311;28;20438;-82
2022/08/26 08:53:00;;;;;;;16.17;8.02;;;22.00;99.90;;;;;;4988729;28;20489;-79
2022/08/26 08:55:35;;;;;;;15.75;7.50;;;22.00;99.90;;;;;;4965196;28;20073;-80
2022/08/26 08:58:06;;;;;;;13.45;8.50;;;22.00;99.90;;;;;;4964601;28;20047;-82
2022/08/26 09:00:48;;;;;;;14.77;7.68;;;22.00;99.90;;;;;;4964527;28;20039;-79
2022/08/26 09:03:28;;;;;;;;;;;22.00;99.90;;;;;;4989767;28;20384;-80
2022/08/26 09:05:57;;;;;;;13.68;7.07;;;22.00;99.90;;;;;;4963949;28;19937;-80
2022/08/26 09:08:28;;;;;;;12.40;7.18;;;22.00;99.90;;;;;;4966309;28;20046;-79
2022/08/26 09:10:58;;;;;;;13.30;8.38;;;22.00;99.90;;;;;;4968111;28;20058;-82
2022/08/26 09:13:24;;;;;;;12.07;7.45;;;22.00;99.90;;;;;;4967961;28;20414;-82
2022/08/26 09:16:06;;;;;;;17.58;8.05;;;22.00;99.90;;;;;;4963727;28;20062;-82
2022/08/26 09:19:10;;;;;;;16.42;8.50;;;22.00;99.90;;;;;;4963728;28;20048;-82
2022/08/26 09:21:36;;;;;;;14.18;7.22;;;22.00;99.90;;;;;;4966393;28;20118;-82
2022/08/26 09:24:02;;;;;;;14.48;8.07;;;22.00;99.90;;;;;;4965474;28;20054;-80
2022/08/26 09:26:44;;;;;;;13.18;7.40;;;22.00;99.90;;;;;;4968633;28;20101;-82
2022/08/26 09:29:40;;;;;;;15.10;8.48;;;22.00;99.90;;;;;;4964775;28;20057;-81
2022/08/26 09:32:19;;;;;;;13.27;6.90;;;22.00;99.90;;;;;;4969860;28;20518;-82
2022/08/26 09:35:46;;;;;;;12.13;5.95;;;22.00;99.90;;;;;;4965300;28;20053;-83
2022/08/26 09:38:31;;;;;;;11.93;5.43;;;22.00;99.90;;;;;;4946271;28;20535;-83
2022/08/26 09:41:07;;;;;;;6.72;4.60;;;22.10;99.90;;;;;;4968204;28;20046;-83
2022/08/26 09:43:33;;;;;;;8.25;4.25;;;22.10;99.90;;;;;;4971953;28;20046;-80
2022/08/26 09:46:14;;;;;;;7.05;3.67;;;22.20;99.90;;;;;;4963823;28;20435;-80
2022/08/26 09:48:41;;;;;;;6.53;4.03;;;22.20;99.90;;;;;;4968102;28;20043;-81
2022/08/26 09:51:30;;;;;;;6.65;3.90;;;22.30;99.90;;;;;;4969020;28;20050;-81
2022/08/26 09:53:59;;;;;;;6.95;3.97;;;22.40;99.90;;;;;;4966521;28;20053;-80
2022/08/26 09:56:30;;;;;;;6.32;3.28;;;22.50;99.90;;;;;;4964951;28;20042;-79
2022/08/26 09:58:57;;;;;;;6.15;4.00;;;22.60;99.90;;;;;;4965048;28;20047;-81
2022/08/26 10:01:31;;;;;;;7.20;3.45;;;22.60;99.90;;;;;;4968613;28;20054;-81
2022/08/26 10:04:11;;;;;;;6.68;3.08;;;22.70;99.90;;;;;;4965627;28;20059;-81
2022/08/26 10:06:53;;;;;;;9.57;3.45;;;22.70;99.90;;;;;;4965362;28;20047;-80
2022/08/26 10:09:19;;;;;;;8.75;2.70;;;22.70;99.90;;;;;;4966143;28;20051;-80
2022/08/26 10:12:02;;;;;;;6.82;3.05;;;22.70;99.90;;;;;;4969448;28;20133;-80
2022/08/26 10:14:33;;;;;;;8.23;3.15;;;22.60;99.90;;;;;;4965703;28;20059;-78
2022/08/26 10:17:07;;;;;;;7.90;2.95;;;22.60;99.90;;;;;;4969228;28;20385;-80
2022/08/26 10:19:46;;;;;;;7.03;2.33;;;22.50;99.90;;;;;;4969332;28;20049;-80
2022/08/26 10:22:23;;;;;;;6.85;2.30;;;22.40;99.90;;;;;;4969598;28;20397;-80
2022/08/26 10:24:58;;;;;;;7.40;2.30;;;22.40;99.90;;;;;;4967269;28;20122;-79
2022/08/26 10:27:36;;;;;;;8.30;1.88;;;22.30;99.90;;;;;;4965152;28;20053;-80
2022/08/26 10:30:11;;;;;;;5.68;2.13;;;22.30;99.90;;;;;;4963429;28;20081;-79
2022/08/26 10:32:40;;;;;;;5.63;1.83;;;22.30;99.90;;;;;;4965958;28;20074;-81
2022/08/26 10:35:10;;;;;;;7.18;2.10;;;22.20;99.90;;;;;;4967230;28;20042;-81
2022/08/26 10:37:40;;;;;;;6.72;2.53;;;22.10;99.90;;;;;;4965623;28;20280;-80
2022/08/26 10:40:14;;;;;;;7.68;2.28;;;22.00;99.90;;;;;;4971390;28;20511;-81
2022/08/26 10:42:55;;;;;;;7.32;2.30;;;21.90;99.90;;;;;;4967917;28;20130;-79
2022/08/26 10:45:27;;;;;;;5.70;1.83;;;21.80;99.90;;;;;;4972029;28;20047;-80
2022/08/26 10:48:00;;;;;;;4.82;1.73;;;21.80;99.90;;;;;;4970121;28;20038;-80
2022/08/26 10:50:40;;;;;;;7.18;2.13;;;21.70;99.90;;;;;;4969322;28;20380;-78
2022/08/26 10:53:18;;;;;;;8.77;1.92;;;21.70;99.90;;;;;;4971055;28;20388;-85
2022/08/26 10:56:09;;;;;;;7.78;2.20;;;21.70;99.90;;;;;;4969458;28;20051;-83
2022/08/26 10:58:40;;;;;;;5.40;1.92;;;21.70;99.90;;;;;;4978493;28;20214;-82
2022/08/26 11:01:41;;;;;;;7.22;2.40;;;21.70;99.90;;;;;;4959014;28;20129;-83
2022/08/26 11:04:28;;;;;;;9.23;2.05;;;21.70;99.90;;;;;;4968440;28;20122;-81
2022/08/26 11:07:31;;;;;;;9.60;2.60;;;21.70;99.90;;;;;;4969578;28;20054;-80
2022/08/26 11:09:59;;;;;;;5.80;2.03;;;21.80;99.90;;;;;;4971322;28;20050;-84
2022/08/26 11:12:37;;;;;;;5.47;2.20;;;21.80;99.90;;;;;;4971588;28;20496;-84
2022/08/26 11:15:20;;;;;;;4.57;1.75;;;21.80;99.90;;;;;;4968022;28;20063;-82
2022/08/26 11:17:46;;;;;;;8.07;2.55;;;21.80;99.90;;;;;;4967814;28;20055;-81
2022/08/26 11:20:38;;;;;;;8.55;2.58;;;21.70;99.90;;;;;;4969983;28;20050;-82
2022/08/26 11:23:21;;;;;;;5.83;2.30;;;21.70;99.90;;;;;;4969394;28;20055;-84
2022/08/26 11:26:06;;;;;;;5.55;2.15;;;21.80;99.90;;;;;;4967885;28;20054;-83
2022/08/26 11:28:39;;;;;;;7.38;2.20;;;21.90;99.90;;;;;;4969332;28;20053;-83
2022/08/26 11:31:11;;;;;;;4.30;2.38;;;22.00;99.90;;;;;;4971017;28;20153;-84
2022/08/26 11:33:45;;;;;;;5.90;2.30;;;22.00;99.90;;;;;;4969633;28;20341;-85
2022/08/26 11:36:46;;;;;;;5.63;2.28;;;21.90;99.90;;;;;;4971170;28;20058;-81
2022/08/26 11:39:15;;;;;;;4.78;2.42;;;22.00;99.90;;;;;;4966049;28;20085;-80
2022/08/26 11:41:44;;;;;;;5.35;2.42;;;22.00;99.90;;;;;;4968317;28;20462;-81
2022/08/26 11:44:14;;;;;;;6.70;2.60;;;21.90;99.90;;;;;;4970482;28;20066;-80
2022/08/26 11:46:40;;;;;;;7.05;2.47;;;22.00;99.90;;;;;;4972004;28;20098;-80
2022/08/26 11:49:06;;;;;;;6.30;2.20;;;22.00;99.90;;;;;;4969780;28;20051;-80
2022/08/26 11:51:34;;;;;;;5.03;2.25;;;22.00;99.90;;;;;;4969552;28;20046;-80
2022/08/26 11:54:29;;;;;;;6.45;2.45;;;22.10;99.90;;;;;;4969192;28;20411;-81
2022/08/26 11:56:56;;;;;;;4.50;2.20;;;22.00;99.90;;;;;;4952531;28;20059;-82
2022/08/26 11:59:32;;;;;;;5.47;2.10;;;22.00;99.90;;;;;;4963170;28;20125;-82
2022/08/26 12:01:59;;;;;;;8.25;2.40;;;21.80;99.90;;;;;;4966305;28;20070;-80
2022/08/26 12:04:32;;;;;;;5.18;2.10;;;21.90;99.90;;;;;;4963348;28;21160;-80
2022/08/26 12:07:00;;;;;;;6.50;2.83;;;21.90;99.90;;;;;;4963687;28;20105;-78
2022/08/26 12:09:28;;;;;;;6.82;2.25;;;21.90;99.90;;;;;;4968150;28;20429;-80
2022/08/26 12:12:21;;;;;;;5.80;2.35;;;21.90;99.90;;;;;;4965383;28;20493;-78
2022/08/26 12:14:46;;;;;;;4.82;1.77;;;22.00;99.90;;;;;;4967099;28;20434;-79
2022/08/26 12:17:26;;;;;;;6.88;2.00;;;21.90;99.90;;;;;;4950451;28;20053;-80
2022/08/26 12:19:52;;;;;;;6.28;2.10;;;21.90;99.90;;;;;;4961798;28;20114;-83
2022/08/26 12:22:37;;;;;;;6.95;2.45;;;21.90;99.90;;;;;;4966274;28;20156;-82
2022/08/26 12:25:08;;;;;;;6.28;1.95;;;21.80;99.90;;;;;;4966012;28;20450;-80
2022/08/26 12:27:43;;;;;;;10.70;2.10;;;21.80;99.90;;;;;;4950007;28;20089;-81
2022/08/26 12:30:18;;;;;;;7.47;2.00;;;21.70;99.90;;;;;;4958301;28;20054;-79
2022/08/26 12:32:50;;;;;;;5.45;2.00;;;21.60;99.90;;;;;;4963507;28;20143;-80
2022/08/26 12:35:18;;;;;;;6.68;1.88;;;21.50;99.90;;;;;;4964695;28;20165;-81
2022/08/26 12:37:46;;;;;;;10.50;2.30;;;;;;;;;;4966233;28;20078;-79
2022/08/26 12:40:28;;;;;;;9.93;2.20;;;;;;;;;;4963320;28;20051;-82
2022/08/26 12:42:55;;;;;;;7.40;1.92;;;;;;;;;;4963853;28;20053;-81
2022/08/26 12:45:41;;;;;;;11.35;2.35;;;;;;;;;;4947319;28;20137;-81
2022/08/26 12:48:12;;;;;;;11.45;2.17;;;;;;;;;;4960104;28;20403;-82
2022/08/26 12:50:44;;;;;;;9.77;2.17;;;;;;;;;;4964850;28;20479;-81
2022/08/26 12:53:10;;;;;;;6.63;1.70;;;;;;;;;;4962226;28;20054;-79
2022/08/26 12:55:36;;;;;;;7.32;2.53;;;;;;;;;;4964079;28;20866;-79
2022/08/26 12:58:14;;;;;;;7.53;2.03;;;;;;;;;;4967938;28;20125;-80